Terminal Aerodrome Forecast
Issued by NWS

Home | Current Version | Previous Version | Graphics & Text | Print | Product List | Glossary On
Versions: 1 2 3 4 5 6 7 8 9 10 11 12 13 14 15 16 17
000
FTUS43 KICT 170526
TAFHUT
TAF
KHUT 170526Z 1706/1806 09007KT P6SM VCTS SCT025 BKN035CB
      TEMPO 1706/1710 4SM -TSRA BKN020CB
     FM171100 11007KT 5SM BR SCT020 BKN035
     FM171600 14015G23KT P6SM SCT030 BKN035
     FM180100 15006KT P6SM SCT020 BKN035=

USA.gov is the U.S. government's official web portal to all federal, state and local government web resources and services.